Time;durP1;ratioP1;P1;durP2;ratioP2;P2;SDS_P1;SDS_P2;PMS_P1;PMS_P2;Temp;Humidity;BMP_temperature;BMP_pressure;BME280_temperature;BME280_humidity;BME280_pressure;Samples;Min_cycle;Max_cycle;Signal;HPM_P1;HPM_P2
2023/07/11 00:00:54;;;;;;;;;1.00;1.00;;;;;21.28;56.83;101690.50;5024852;28;8967;-67
2023/07/11 00:03:21;;;;;;;;;0.50;0.50;;;;;21.25;56.59;101688.25;5012145;28;8910;-67
2023/07/11 00:05:58;;;;;;;;;1.00;1.00;;;;;21.19;57.06;101681.84;5027087;28;9608;-67
2023/07/11 00:08:25;;;;;;;;;0.00;0.00;;;;;21.16;57.01;101678.78;5037167;28;8832;-68
2023/07/11 00:10:51;;;;;;;;;1.00;1.00;;;;;21.14;57.02;101678.16;5042266;28;8826;-67
2023/07/11 00:13:18;;;;;;;;;1.00;1.00;;;;;21.11;57.14;101676.78;5037812;28;8859;-68
2023/07/11 00:16:01;;;;;;;;;0.75;0.75;;;;;21.13;57.11;101673.78;5022302;28;8953;-68
2023/07/11 00:18:28;;;;;;;;;1.25;1.00;;;;;21.11;57.15;101676.78;5018951;28;8825;-68
2023/07/11 00:20:55;;;;;;;;;1.00;1.00;;;;;21.10;57.45;101668.78;5027965;28;8918;-68
2023/07/11 00:23:23;;;;;;;;;1.00;1.00;;;;;21.09;57.55;101665.22;5040083;28;9495;-69
2023/07/11 00:25:49;;;;;;;;;0.75;0.75;;;;;21.09;57.54;101673.44;5052519;28;8846;-69
2023/07/11 00:28:16;;;;;;;;;0.75;0.75;;;;;21.07;57.63;101669.28;5042082;28;8898;-68
2023/07/11 00:30:43;;;;;;;;;1.00;1.00;;;;;21.06;57.70;101664.88;5027783;28;8848;-69
2023/07/11 00:33:10;;;;;;;;;1.00;1.00;;;;;21.04;58.00;101662.38;5030858;28;8929;-68
2023/07/11 00:35:37;;;;;;;;;1.00;1.00;;;;;21.03;58.10;101651.69;5027049;28;8836;-67
2023/07/11 00:38:05;;;;;;;;;0.00;0.00;;;;;21.01;58.26;101659.31;5040107;28;8888;-69
2023/07/11 00:40:32;;;;;;;;;0.00;0.00;;;;;21.01;58.53;101653.84;5020335;28;8839;-69
2023/07/11 00:43:00;;;;;;;;;1.00;0.25;;;;;21.02;58.32;101644.53;5026656;28;9565;-67
2023/07/11 00:45:49;;;;;;;;;2.00;2.00;;;;;21.01;58.45;101640.16;5027157;28;8922;-66
2023/07/11 00:48:21;;;;;;;;;1.75;1.75;;;;;20.98;58.60;101638.72;5042695;28;9522;-68
2023/07/11 00:50:50;;;;;;;;;0.00;0.00;;;;;20.95;58.69;101639.22;5033532;28;8850;-67
2023/07/11 00:53:17;;;;;;;;;0.00;0.00;;;;;20.93;58.89;101638.63;5032176;28;8853;-66
2023/07/11 00:55:45;;;;;;;;;1.00;1.00;;;;;20.87;59.07;101637.72;5020445;28;8824;-67
2023/07/11 00:58:14;;;;;;;;;1.00;0.75;;;;;20.87;59.18;101637.72;5030336;28;8864;-66
2023/07/11 01:00:41;;;;;;;;;2.25;2.00;;;;;20.84;59.27;101634.63;5030951;28;8820;-68
2023/07/11 01:03:07;;;;;;;;;2.00;0.50;;;;;20.82;59.50;101625.81;5031437;28;8848;-69
2023/07/11 01:05:38;;;;;;;;;1.00;1.00;;;;;20.80;59.47;101626.06;5034169;28;8920;-68
2023/07/11 01:08:06;;;;;;;;;1.50;1.50;;;;;20.77;59.62;101617.50;5028690;28;8860;-67
2023/07/11 01:10:33;;;;;;;;;1.75;1.50;;;;;20.73;59.67;101623.47;5030283;28;8947;-66
2023/07/11 01:13:02;;;;;;;;;0.75;0.75;;;;;20.71;59.80;101611.94;5012623;28;8918;-67
2023/07/11 01:15:29;;;;;;;;;2.50;2.00;;;;;20.70;59.78;101623.09;5029648;28;8948;-66
2023/07/11 01:17:56;;;;;;;;;1.00;1.00;;;;;20.66;59.73;101619.19;5035723;28;8868;-69
2023/07/11 01:20:22;;;;;;;;;1.50;1.50;;;;;20.64;59.76;101615.88;5029466;28;8825;-68
2023/07/11 01:22:52;;;;;;;;;2.00;2.00;;;;;20.62;59.84;101609.81;5035756;28;8822;-68
2023/07/11 01:25:19;;;;;;;;;0.25;0.25;;;;;20.61;59.74;101602.69;5048453;28;8991;-68
2023/07/11 01:27:47;;;;;;;;;0.50;0.50;;;;;20.59;59.86;101597.47;5029399;28;8825;-68
2023/07/11 01:30:17;;;;;;;;;1.00;1.00;;;;;20.59;60.13;101586.53;5022740;28;8840;-67
2023/07/11 01:32:43;;;;;;;;;1.25;1.00;;;;;20.60;60.23;101579.97;5027883;28;8898;-66
2023/07/11 01:35:10;;;;;;;;;1.00;0.00;;;;;20.60;60.25;101574.50;5031650;28;8829;-67
2023/07/11 01:37:37;;;;;;;;;0.50;0.00;;;;;20.60;60.66;101571.75;5041135;28;8933;-67
2023/07/11 01:40:05;;;;;;;;;1.25;0.75;;;;;20.60;60.47;101571.75;5028449;28;8891;-67
2023/07/11 01:42:32;;;;;;;;;1.50;1.50;;;;;20.60;60.69;101566.28;5036778;28;8963;-67
2023/07/11 01:44:58;;;;;;;;;0.00;0.00;;;;;20.60;60.58;101560.81;5032230;28;8857;-67
2023/07/11 01:47:25;;;;;;;;;1.00;1.00;;;;;20.59;60.68;101564.66;5031203;28;8890;-67
2023/07/11 01:49:51;;;;;;;;;1.00;1.00;;;;;20.57;60.73;101560.47;5018077;28;8863;-66
2023/07/11 01:52:22;;;;;;;;;0.00;0.00;;;;;20.56;60.84;101553.34;5025863;28;8855;-66
2023/07/11 01:54:50;;;;;;;;;1.00;1.00;;;;;20.55;60.95;101546.22;5026890;28;8820;-66
2023/07/11 01:57:17;;;;;;;;;1.00;1.00;;;;;20.54;60.92;101539.94;5031115;28;8922;-67
2023/07/11 01:59:44;;;;;;;;;0.00;0.00;;;;;20.54;60.75;101544.53;5031173;28;8892;-67
2023/07/11 02:02:11;;;;;;;;;2.00;1.00;;;;;20.55;60.71;101546.22;5031221;28;8853;-66
2023/07/11 02:04:38;;;;;;;;;1.00;1.00;;;;;20.52;60.75;101544.81;5039831;28;8824;-70
2023/07/11 02:07:06;;;;;;;;;3.25;1.50;;;;;20.51;60.67;101542.31;5030391;28;8814;-67
2023/07/11 02:09:33;;;;;;;;;1.00;1.00;;;;;20.48;60.84;101540.84;5024581;28;8870;-66
2023/07/11 02:11:59;;;;;;;;;1.00;0.00;;;;;20.47;60.67;101533.75;5049475;28;8861;-66
2023/07/11 02:14:26;;;;;;;;;0.75;0.75;;;;;20.43;60.92;101533.38;5031825;28;8846;-66
2023/07/11 02:16:53;;;;;;;;;1.00;1.00;;;;;20.41;61.04;101524.59;5033619;28;8885;-66
2023/07/11 02:19:21;;;;;;;;;1.25;0.75;;;;;20.38;61.36;101518.78;5039886;28;8837;-66
2023/07/11 02:21:49;;;;;;;;;0.75;0.75;;;;;20.34;61.43;101518.44;5017909;28;8815;-66
2023/07/11 02:24:17;;;;;;;;;0.00;0.00;;;;;20.32;61.59;101506.91;5028120;28;9498;-67
2023/07/11 02:26:44;;;;;;;;;1.00;1.00;;;;;20.32;61.92;101503.34;5026465;28;9045;-65
2023/07/11 02:29:10;;;;;;;;;1.00;0.00;;;;;20.30;61.57;101498.13;5028656;28;8863;-65
2023/07/11 02:31:37;;;;;;;;;1.00;1.00;;;;;20.31;61.43;101496.22;5050227;28;8907;-66
2023/07/11 02:34:05;;;;;;;;;1.00;1.00;;;;;20.31;61.42;101490.75;5028949;28;8872;-68
2023/07/11 02:36:32;;;;;;;;;1.00;1.00;;;;;20.31;61.42;101491.59;5041847;28;8918;-68
2023/07/11 02:38:59;;;;;;;;;1.75;1.75;;;;;20.32;61.25;101487.75;5031194;28;8886;-69
2023/07/11 02:41:26;;;;;;;;;2.00;2.00;;;;;20.32;61.41;101478.72;5033790;28;8818;-69
2023/07/11 02:43:52;;;;;;;;;0.75;0.75;;;;;20.31;61.28;101477.91;5038195;28;9613;-69
2023/07/11 02:46:19;;;;;;;;;1.00;1.00;;;;;20.32;61.54;101470.53;5042186;28;8822;-69
2023/07/11 02:48:46;;;;;;;;;1.75;1.00;;;;;20.30;61.47;101468.06;5031650;28;8862;-68
2023/07/11 02:51:12;;;;;;;;;2.75;2.00;;;;;20.29;61.60;101465.53;5025013;28;8910;-67
2023/07/11 02:53:39;;;;;;;;;1.25;1.25;;;;;20.29;61.62;101454.59;5023730;28;8825;-68
2023/07/11 02:56:05;;;;;;;;;1.75;1.00;;;;;20.28;61.82;101453.78;5017488;28;8847;-68
2023/07/11 02:58:35;;;;;;;;;2.00;1.75;;;;;20.27;61.95;101452.13;5029395;28;8844;-69
2023/07/11 03:01:03;;;;;;;;;0.75;0.75;;;;;20.28;61.83;101452.97;5038640;28;8848;-69
2023/07/11 03:03:31;;;;;;;;;3.50;1.00;;;;;20.27;61.95;101460.34;5042563;28;8829;-69
2023/07/11 03:05:58;;;;;;;;;1.00;1.00;;;;;20.27;62.10;101448.56;5021052;28;8824;-68
2023/07/11 03:08:25;;;;;;;;;1.50;1.50;;;;;20.25;62.27;101441.44;5029606;28;8935;-68
2023/07/11 03:10:55;;;;;;;;;3.00;1.00;;;;;20.24;62.38;101444.41;5020869;28;8874;-68
2023/07/11 03:13:22;;;;;;;;;1.25;1.25;;;;;20.24;62.33;101437.03;5027087;28;8826;-68
2023/07/11 03:15:48;;;;;;;;;1.50;1.50;;;;;20.21;62.12;101442.16;5033498;28;8901;-69
2023/07/11 03:18:15;;;;;;;;;1.00;1.00;;;;;20.19;62.10;101430.66;5030178;28;8890;-68
2023/07/11 03:20:42;;;;;;;;;0.50;0.50;;;;;20.18;61.89;101429.00;5042301;28;8984;-68
2023/07/11 03:23:14;;;;;;;;;1.00;1.00;;;;;20.17;61.94;101427.31;5027849;28;8844;-67
2023/07/11 03:25:40;;;;;;;;;1.00;1.00;;;;;20.16;61.66;101417.47;5033347;28;8849;-66
2023/07/11 03:28:07;;;;;;;;;1.75;1.75;;;;;20.14;61.53;101412.25;5034020;28;8843;-66
2023/07/11 03:30:35;;;;;;;;;0.75;0.75;;;;;20.14;61.00;101414.97;5034674;28;8834;-67
2023/07/11 03:33:02;;;;;;;;;1.00;1.00;;;;;20.12;60.69;101411.66;5035075;28;8842;-67
2023/07/11 03:35:30;;;;;;;;;0.50;0.50;;;;;20.11;60.31;101407.25;5033850;28;8939;-67
2023/07/11 03:37:57;;;;;;;;;1.00;1.00;;;;;20.10;60.18;101400.16;5029830;28;8855;-67
2023/07/11 03:40:24;;;;;;;;;0.00;0.00;;;;;20.11;59.83;101399.06;5030182;28;8978;-67
2023/07/11 03:42:51;;;;;;;;;1.00;1.00;;;;;20.09;59.53;101403.94;5040066;28;8877;-66
2023/07/11 03:45:17;;;;;;;;;0.75;0.75;;;;;20.08;59.13;101395.97;5041190;28;8911;-66
2023/07/11 03:47:44;;;;;;;;;1.00;1.00;;;;;20.06;59.00;101390.78;5039345;28;8836;-66
2023/07/11 03:50:10;;;;;;;;;0.25;0.25;;;;;20.06;58.44;101387.22;5037180;28;8848;-67
2023/07/11 03:52:37;;;;;;;;;0.50;0.50;;;;;20.05;58.34;101383.63;5029884;28;8825;-67
2023/07/11 03:55:04;;;;;;;;;0.50;0.50;;;;;20.06;58.30;101385.31;5032417;28;8860;-66
2023/07/11 03:57:30;;;;;;;;;0.00;0.00;;;;;20.06;58.17;101381.75;5035587;28;8850;-66
2023/07/11 03:59:57;;;;;;;;;0.00;0.00;;;;;20.05;58.12;101383.63;5043097;28;8841;-67
2023/07/11 04:02:23;;;;;;;;;0.25;0.25;;;;;20.07;57.99;101380.66;5027745;28;8845;-67
2023/07/11 04:04:50;;;;;;;;;0.50;0.00;;;;;20.05;57.96;101372.69;5027682;28;8840;-66
2023/07/11 04:07:16;;;;;;;;;0.00;0.00;;;;;20.03;58.16;101371.31;5026965;28;8848;-66
2023/07/11 04:09:43;;;;;;;;;0.00;0.00;;;;;20.04;58.03;101375.69;5029404;28;8930;-67
2023/07/11 04:12:10;;;;;;;;;0.75;0.75;;;;;20.04;57.92;101375.69;5029174;28;8847;-67
2023/07/11 04:14:37;;;;;;;;;0.00;0.00;;;;;20.02;57.96;101367.75;5039392;28;8848;-66
2023/07/11 04:17:04;;;;;;;;;0.00;0.00;;;;;20.01;57.94;101363.31;5029560;28;8840;-66
2023/07/11 04:19:31;;;;;;;;;0.50;0.50;;;;;19.97;58.12;101357.53;5017504;28;8835;-66
2023/07/11 04:21:57;;;;;;;;;0.00;0.00;;;;;19.96;58.16;101364.06;5034980;28;8813;-66
2023/07/11 04:24:23;;;;;;;;;0.00;0.00;;;;;19.93;58.32;101363.72;5030327;28;8857;-66
2023/07/11 04:26:50;;;;;;;;;1.00;0.25;;;;;19.92;58.45;101357.44;5031191;28;9529;-66
2023/07/11 04:29:16;;;;;;;;;0.00;0.00;;;;;19.93;58.51;101356.38;5038652;28;9600;-66
2023/07/11 04:31:43;;;;;;;;;0.00;0.00;;;;;19.94;58.54;101354.47;5030440;28;8840;-66
2023/07/11 04:34:09;;;;;;;;;0.25;0.25;;;;;19.94;58.69;101355.28;5046314;28;8843;-65
2023/07/11 04:36:36;;;;;;;;;1.00;1.00;;;;;19.97;58.69;101349.34;5028419;28;8959;-66
2023/07/11 04:39:03;;;;;;;;;0.50;0.50;;;;;19.99;58.74;101351.81;5027504;28;8895;-66
2023/07/11 04:41:29;;;;;;;;;1.25;1.25;;;;;20.00;58.81;101354.31;5031083;28;8879;-66
2023/07/11 04:43:56;;;;;;;;;1.00;1.00;;;;;20.00;58.71;101348.00;5057610;28;9774;-65
2023/07/11 04:46:22;;;;;;;;;1.00;1.00;;;;;20.04;58.75;101342.88;5013037;28;8839;-67
2023/07/11 04:48:52;;;;;;;;;0.00;0.00;;;;;20.06;58.80;101348.94;5037995;28;8841;-66
2023/07/11 04:51:18;;;;;;;;;1.00;1.00;;;;;20.06;58.82;101347.03;5030503;28;8870;-67
2023/07/11 04:53:45;;;;;;;;;1.75;1.75;;;;;20.07;58.99;101332.31;5029149;28;8830;-67
2023/07/11 04:56:12;;;;;;;;;2.00;1.50;;;;;20.08;59.26;101335.84;5031365;28;8819;-67
2023/07/11 04:58:38;;;;;;;;;1.50;1.50;;;;;20.05;59.44;101333.59;5037323;28;8825;-67
2023/07/11 05:01:11;;;;;;;;;2.00;2.00;;;;;20.07;59.47;101326.84;5021363;28;8936;-66
2023/07/11 05:03:38;;;;;;;;;1.50;1.50;;;;;20.12;59.56;101324.19;5027174;28;8832;-67
2023/07/11 05:06:07;;;;;;;;;1.00;1.00;;;;;20.13;59.64;101314.91;5025159;28;8988;-67
2023/07/11 05:08:34;;;;;;;;;2.25;2.25;;;;;20.12;59.83;101306.97;5029943;28;8948;-67
2023/07/11 05:11:07;;;;;;;;;2.00;2.00;;;;;20.16;60.02;101310.84;5031519;28;8832;-65
2023/07/11 05:13:34;;;;;;;;;1.50;1.00;;;;;20.17;60.04;101310.59;5030270;28;8899;-66
2023/07/11 05:16:04;;;;;;;;;2.00;2.00;;;;;20.19;59.91;101305.72;5026839;28;8829;-68
2023/07/11 05:18:32;;;;;;;;;3.25;2.00;;;;;20.19;59.75;101300.25;5023475;28;8829;-68
2023/07/11 05:20:58;;;;;;;;;3.75;2.75;;;;;20.23;59.92;101293.22;5032989;28;8835;-69
2023/07/11 05:23:28;;;;;;;;;2.00;2.00;;;;;20.25;59.66;101290.22;5047389;28;8838;-70
2023/07/11 05:25:55;;;;;;;;;2.00;2.00;;;;;20.23;60.12;101295.97;5026953;28;8839;-70
2023/07/11 05:28:24;;;;;;;;;1.75;1.75;;;;;20.26;59.86;101278.25;5030271;28;9582;-69
2023/07/11 05:30:51;;;;;;;;;2.00;2.00;;;;;20.27;59.97;101279.91;5038193;28;8830;-70
2023/07/11 05:33:18;;;;;;;;;2.00;1.25;;;;;20.32;59.98;101284.59;5026633;28;8829;-68
2023/07/11 05:35:59;;;;;;;;;3.00;2.50;;;;;20.40;60.03;101271.34;5046576;28;8845;-68
2023/07/11 05:38:26;;;;;;;;;2.50;2.50;;;;;20.47;59.89;101269.28;5024393;28;8839;-67
2023/07/11 05:40:52;;;;;;;;;3.25;2.25;;;;;20.60;60.15;101270.06;5028652;28;8841;-68
2023/07/11 05:43:19;;;;;;;;;7.25;6.00;;;;;20.66;59.70;101274.50;5021989;28;8824;-68
2023/07/11 05:45:45;;;;;;;;;2.75;2.75;;;;;20.72;59.62;101265.31;5028673;28;8829;-69
2023/07/11 05:48:11;;;;;;;;;7.00;7.00;;;;;20.77;59.53;101265.38;5039425;28;8824;-69
2023/07/11 05:50:38;;;;;;;;;6.00;5.25;;;;;20.82;59.79;101261.88;5035148;28;9559;-69
2023/07/11 05:53:04;;;;;;;;;4.00;4.00;;;;;20.82;59.83;101259.97;5041367;28;8867;-70
2023/07/11 05:55:31;;;;;;;;;7.00;6.00;;;;;20.83;59.87;101258.91;5021786;28;8832;-69
2023/07/11 05:57:57;;;;;;;;;7.00;7.00;;;;;20.90;60.30;101253.22;5030456;28;9533;-70
2023/07/11 06:00:24;;;;;;;;;7.50;6.00;;;;;20.94;60.12;101248.91;5031532;28;8836;-69
2023/07/11 06:02:51;;;;;;;;;8.00;8.00;;;;;20.94;60.22;101247.03;5031166;28;8959;-68
2023/07/11 06:05:17;;;;;;;;;6.75;6.75;;;;;21.00;60.29;101245.16;5031023;28;8907;-68
2023/07/11 06:07:45;;;;;;;;;7.00;7.00;;;;;21.12;60.50;101243.13;5034199;28;9612;-66
2023/07/11 06:10:11;;;;;;;;;12.50;8.00;;;;;21.21;60.53;101241.59;5025149;28;8840;-67
2023/07/11 06:12:38;;;;;;;;;8.00;6.75;;;;;21.28;60.21;101235.13;5031498;28;8848;-67
2023/07/11 06:15:05;;;;;;;;;5.75;5.75;;;;;21.30;60.20;101238.41;5031002;28;8830;-66
2023/07/11 06:17:31;;;;;;;;;7.25;7.25;;;;;21.29;60.32;101231.28;5028752;28;8836;-66
2023/07/11 06:19:58;;;;;;;;;9.75;9.75;;;;;21.28;60.53;101232.38;5025347;28;8851;-66
2023/07/11 06:22:24;;;;;;;;;9.25;9.25;;;;;21.24;60.85;101235.63;5010783;28;8883;-67
2023/07/11 06:24:51;;;;;;;;;6.50;6.50;;;;;21.28;60.82;101235.13;5017015;28;8823;-68
2023/07/11 06:27:18;;;;;;;;;10.00;10.00;;;;;21.33;61.20;101240.66;5029460;28;9025;-68
2023/07/11 06:29:46;;;;;;;;;9.25;9.25;;;;;21.35;60.79;101243.97;5028333;28;8919;-66
2023/07/11 06:32:13;;;;;;;;;7.50;7.50;;;;;21.36;60.71;101231.94;5029875;28;8840;-67
2023/07/11 06:34:39;;;;;;;;;11.00;11.00;;;;;21.35;60.88;101231.13;5023184;28;8831;-66
2023/07/11 06:37:06;;;;;;;;;8.25;8.25;;;;;21.32;60.94;101228.91;5013519;28;8860;-67
2023/07/11 06:39:32;;;;;;;;;7.00;7.00;;;;;21.31;60.99;101226.38;5037068;28;9542;-67
2023/07/11 06:41:59;;;;;;;;;9.00;9.00;;;;;21.31;61.10;101226.38;5028753;28;8836;-67
2023/07/11 06:44:26;;;;;;;;;8.50;7.75;;;;;21.32;61.22;101220.69;5028827;28;8848;-66
2023/07/11 06:46:52;;;;;;;;;12.00;11.75;;;;;21.38;61.43;101225.13;5034401;28;8818;-67
2023/07/11 06:49:19;;;;;;;;;8.50;8.50;;;;;21.42;61.14;101218.03;5040928;28;8912;-67
2023/07/11 06:51:45;;;;;;;;;8.50;8.00;;;;;21.50;60.72;101221.41;5039025;28;8840;-67
2023/07/11 06:54:12;;;;;;;;;6.75;6.75;;;;;21.59;60.49;101217.13;5046579;28;8834;-67
2023/07/11 06:56:38;;;;;;;;;5.50;5.50;;;;;21.64;60.15;101225.41;5049833;28;8845;-67
2023/07/11 06:59:05;;;;;;;;;6.75;6.25;;;;;21.66;59.43;101223.22;5049598;28;8906;-67
2023/07/11 07:01:32;;;;;;;;;7.00;6.00;;;;;21.75;59.15;101221.66;5029415;28;8828;-67
2023/07/11 07:04:01;;;;;;;;;4.25;4.25;;;;;21.79;58.83;101216.50;5030060;28;8843;-67
2023/07/11 07:06:31;;;;;;;;;6.25;5.00;;;;;21.76;58.56;101220.59;5023557;28;8958;-68
2023/07/11 07:08:57;;;;;;;;;6.00;6.00;;;;;21.80;58.52;101221.72;5015777;28;8840;-67
2023/07/11 07:11:24;;;;;;;;;5.50;5.50;;;;;21.83;58.37;101221.19;5027899;28;8839;-67
2023/07/11 07:13:51;;;;;;;;;7.00;7.00;;;;;21.89;58.38;101222.91;5026782;28;8837;-67
2023/07/11 07:16:33;;;;;;;;;7.75;6.00;;;;;21.90;58.60;101213.56;5020535;28;8843;-66
2023/07/11 07:19:00;;;;;;;;;5.00;5.00;;;;;21.95;58.42;101215.53;5026428;28;9549;-67
2023/07/11 07:21:27;;;;;;;;;5.75;4.75;;;;;21.89;57.93;101214.69;5025405;28;8859;-66
2023/07/11 07:23:53;;;;;;;;;4.00;4.00;;;;;21.93;58.29;101218.56;5026613;28;8825;-68
2023/07/11 07:26:20;;;;;;;;;4.75;4.00;;;;;22.00;58.49;101210.13;5032103;28;8840;-66
2023/07/11 07:28:46;;;;;;;;;3.50;3.50;;;;;22.06;58.54;101206.31;5023267;28;8843;-67
2023/07/11 07:31:13;;;;;;;;;4.50;4.00;;;;;22.04;58.33;101216.72;5019833;28;8835;-67
2023/07/11 07:33:41;;;;;;;;;4.50;4.00;;;;;22.10;58.29;101217.59;5025862;28;8848;-66
2023/07/11 07:36:10;;;;;;;;;3.75;3.75;;;;;22.16;58.59;101216.56;5028195;28;9602;-66
2023/07/11 07:38:39;;;;;;;;;2.75;2.75;;;;;22.17;58.81;101219.06;5022981;28;8836;-67
2023/07/11 07:41:08;;;;;;;;;5.75;5.75;;;;;22.09;58.05;101216.75;5026579;28;8847;-67
2023/07/11 07:43:39;;;;;;;;;3.50;3.50;;;;;22.05;57.70;101209.34;5026952;28;8828;-68
2023/07/11 07:46:06;;;;;;;;;4.00;3.25;;;;;22.12;57.63;101216.25;5020209;28;9616;-68
2023/07/11 07:48:34;;;;;;;;;2.00;2.00;;;;;22.23;57.66;101210.84;5027177;28;8833;-68
2023/07/11 07:51:03;;;;;;;;;4.00;3.25;;;;;22.32;57.38;101199.16;5024822;28;8840;-66
2023/07/11 07:53:31;;;;;;;;;3.00;3.00;;;;;22.42;57.28;101201.13;5027383;28;8832;-67
2023/07/11 07:56:03;;;;;;;;;4.00;4.00;;;;;22.52;56.84;101194.88;5020523;28;8843;-66
2023/07/11 07:58:30;;;;;;;;;4.25;4.25;;;;;22.59;56.53;101199.03;5014835;28;8844;-66
2023/07/11 08:01:05;;;;;;;;;4.00;4.00;;;;;22.63;55.76;101189.16;5024436;28;8966;-65
2023/07/11 08:03:36;;;;;;;;;4.75;3.00;;;;;22.77;55.88;101199.66;5023908;28;9076;-67
2023/07/11 08:06:03;;;;;;;;;3.00;3.00;;;;;22.81;55.77;101189.78;5027094;28;9548;-65
2023/07/11 08:08:43;;;;;;;;;5.75;4.00;;;;;22.91;55.39;101189.88;5027149;28;8816;-66
2023/07/11 08:11:11;;;;;;;;;2.50;2.50;;;;;22.83;54.90;101185.69;5035839;28;8846;-67
2023/07/11 08:13:38;;;;;;;;;2.00;2.00;;;;;22.94;55.24;101173.72;5033798;28;8820;-67
2023/07/11 08:16:25;;;;;;;;;6.75;3.00;;;;;23.00;55.46;101177.28;5024645;28;9877;-66
2023/07/11 08:18:54;;;;;;;;;5.00;3.50;;;;;23.03;55.58;101173.19;5030310;28;8833;-66
2023/07/11 08:21:21;;;;;;;;;7.25;3.50;;;;;22.99;55.24;101172.91;5025297;28;8979;-67
2023/07/11 08:23:47;;;;;;;;;9.25;5.00;;;;;23.10;54.82;101168.28;5020797;28;8817;-66
2023/07/11 08:26:14;;;;;;;;;5.25;5.25;;;;;23.11;54.36;101173.50;5030663;28;8849;-65
2023/07/11 08:28:41;;;;;;;;;3.25;3.25;;;;;23.24;54.58;101169.41;5028118;28;8903;-66
2023/07/11 08:31:08;;;;;;;;;4.00;4.00;;;;;23.31;54.58;101172.72;5030066;28;8863;-65
2023/07/11 08:33:35;;;;;;;;;5.50;5.50;;;;;23.33;54.33;101170.50;5027535;28;8917;-66
2023/07/11 08:36:02;;;;;;;;;4.00;3.50;;;;;23.44;54.23;101174.94;5032262;28;8848;-66
2023/07/11 08:38:29;;;;;;;;;6.00;4.50;;;;;23.51;53.95;101174.69;5031477;28;8918;-68
2023/07/11 08:40:55;;;;;;;;;3.00;3.00;;;;;23.50;53.28;101174.94;5030030;28;8821;-65
2023/07/11 08:43:28;;;;;;;;;3.00;2.75;;;;;23.55;53.50;101170.28;5026504;28;8914;-66
2023/07/11 08:46:05;;;;;;;;;2.00;2.00;;;;;23.62;53.89;101170.84;5026320;28;8863;-66
2023/07/11 08:48:45;;;;;;;;;4.00;4.00;;;;;23.61;53.19;101165.63;5029598;28;8810;-66
2023/07/11 08:51:32;;;;;;;;;4.00;4.00;;;;;23.65;53.31;101172.22;5030582;28;8852;-65
2023/07/11 08:54:09;;;;;;;;;2.50;2.50;;;;;23.67;53.01;101162.63;5031971;28;8894;-66
2023/07/11 08:56:36;;;;;;;;;3.00;3.00;;;;;23.73;52.83;101168.94;5025007;28;8862;-65
2023/07/11 08:59:14;;;;;;;;;3.25;3.25;;;;;23.75;53.29;101169.50;5030421;28;8955;-66
2023/07/11 09:02:06;;;;;;;;;3.75;3.75;;;;;23.77;53.22;101180.22;5019289;28;8847;-67
2023/07/11 09:04:37;;;;;;;;;4.00;3.25;;;;;23.76;53.16;101173.91;5032245;28;8845;-67
2023/07/11 09:07:15;;;;;;;;;4.00;4.00;;;;;23.69;52.24;101173.34;5023616;28;8865;-66
2023/07/11 09:09:42;;;;;;;;;3.25;2.75;;;;;23.76;52.37;101175.84;5020532;28;8923;-66
2023/07/11 09:12:44;;;;;;;;;4.00;4.00;;;;;23.87;52.65;101166.50;5031323;28;8844;-67
2023/07/11 09:15:39;;;;;;;;;3.00;3.00;;;;;23.92;52.50;101177.47;4994082;28;8825;-66
2023/07/11 09:18:34;;;;;;;;;2.25;2.25;;;;;24.03;51.82;101167.31;5022789;28;8857;-67
2023/07/11 09:21:12;;;;;;;;;5.25;4.25;;;;;24.04;51.01;101167.03;5029051;28;8837;-66
2023/07/11 09:24:01;;;;;;;;;3.75;2.50;;;;;24.11;51.03;101158.50;5028893;28;8856;-67
2023/07/11 09:26:49;;;;;;;;;6.50;3.75;;;;;24.14;50.86;101158.75;5024150;28;8963;-68
2023/07/11 09:29:17;;;;;;;;;6.50;4.00;;;;;24.09;50.87;101153.25;5045396;28;8832;-67
2023/07/11 09:31:52;;;;;;;;;1.50;1.50;;;;;24.13;51.29;101154.34;5026252;28;8852;-67
2023/07/11 09:34:34;;;;;;;;;4.00;4.00;;;;;24.24;51.59;101148.84;5026135;28;8816;-68
2023/07/11 09:37:12;;;;;;;;;4.00;3.00;;;;;24.28;51.39;101149.94;5043571;28;8828;-66
2023/07/11 09:39:49;;;;;;;;;4.00;4.00;;;;;24.30;50.91;101144.97;5025568;28;8858;-66
2023/07/11 09:42:38;;;;;;;;;3.00;3.00;;;;;24.27;49.96;101140.06;5036089;28;8847;-66
2023/07/11 09:45:17;;;;;;;;;3.00;3.00;;;;;24.20;49.71;101142.25;5028589;28;8848;-66
2023/07/11 09:47:57;;;;;;;;;4.00;2.50;;;;;24.16;49.21;101158.50;5041407;28;8809;-65
2023/07/11 09:50:32;;;;;;;;;3.00;2.00;;;;;24.13;48.43;101148.03;5029036;28;8972;-66
2023/07/11 09:53:14;;;;;;;;;3.00;3.00;;;;;24.02;48.18;101147.22;5030326;28;8852;-67
2023/07/11 09:55:41;;;;;;;;;4.25;2.50;;;;;24.01;48.10;101159.31;5024014;28;9544;-67
2023/07/11 09:58:17;;;;;;;;;2.50;2.50;;;;;24.17;48.36;101151.88;5029123;28;8847;-66
2023/07/11 10:00:48;;;;;;;;;3.75;3.75;;;;;24.27;48.69;101149.13;5034298;28;8840;-66
2023/07/11 10:03:26;;;;;;;;;3.00;3.00;;;;;24.31;48.61;101146.66;5027111;28;8816;-67
2023/07/11 10:05:53;;;;;;;;;17.75;14.50;;;;;24.38;48.70;101147.19;5018844;28;8820;-66
2023/07/11 10:08:29;;;;;;;;;3.75;3.75;;;;;24.45;48.83;101142.22;5030095;28;8816;-66
2023/07/11 10:11:03;;;;;;;;;3.25;3.00;;;;;24.46;49.31;101141.09;5036875;28;8829;-66
2023/07/11 10:13:30;;;;;;;;;3.75;3.50;;;;;24.50;49.23;101142.19;5030616;28;8852;-67
2023/07/11 10:16:17;;;;;;;;;3.25;3.25;;;;;24.48;48.89;101140.84;5019756;28;9583;-67
2023/07/11 10:18:44;;;;;;;;;3.25;3.25;;;;;24.36;48.44;101138.38;5024195;28;8840;-67
2023/07/11 10:21:12;;;;;;;;;3.25;3.25;;;;;24.42;49.22;101140.84;5024889;28;8820;-67
2023/07/11 10:23:42;;;;;;;;;5.75;4.00;;;;;24.48;49.87;101140.84;5026100;28;8922;-67
2023/07/11 10:26:21;;;;;;;;;4.25;2.50;;;;;24.54;49.95;101135.03;5029743;28;8824;-67
2023/07/11 10:29:15;;;;;;;;;3.75;3.75;;;;;24.52;49.94;101140.00;5024410;28;8909;-68
2023/07/11 10:31:56;;;;;;;;;4.00;4.00;;;;;24.61;49.94;101143.81;5010733;28;8827;-67
2023/07/11 10:34:34;;;;;;;;;3.25;3.00;;;;;24.62;50.11;101145.44;5022400;28;8966;-67
2023/07/11 10:37:12;;;;;;;;;4.00;4.00;;;;;24.65;50.30;101144.91;5007649;28;8973;-66
2023/07/11 10:39:45;;;;;;;;;3.00;3.00;;;;;24.65;50.66;101136.63;5025556;28;8837;-67
2023/07/11 10:42:38;;;;;;;;;4.25;3.00;;;;;24.66;50.68;101138.28;5022664;28;8941;-67
2023/07/11 10:45:19;;;;;;;;;2.00;2.00;;;;;24.67;50.40;101134.44;5023774;28;8817;-67
2023/07/11 10:48:04;;;;;;;;;2.00;2.00;;;;;24.77;50.62;101138.25;5016610;28;8856;-67
2023/07/11 10:50:37;;;;;;;;;4.00;3.00;;;;;24.82;50.74;101132.72;5035007;28;8997;-66
2023/07/11 10:53:31;;;;;;;;;5.00;5.00;;;;;24.84;50.21;101139.59;5024234;28;8852;-67
2023/07/11 10:56:06;;;;;;;;;3.25;3.00;;;;;24.85;50.33;101143.16;5015170;28;8902;-67
2023/07/11 10:58:33;;;;;;;;;3.25;3.25;;;;;24.87;50.38;101141.78;5036705;28;9549;-68
2023/07/11 11:01:12;;;;;;;;;3.00;3.00;;;;;24.90;50.32;101127.44;5027037;28;9534;-66
2023/07/11 11:03:42;;;;;;;;;3.00;3.00;;;;;24.95;50.61;101132.09;5013430;28;8830;-68
2023/07/11 11:06:31;;;;;;;;;3.25;3.00;;;;;24.91;50.67;101131.84;5012824;28;8932;-68
2023/07/11 11:09:35;;;;;;;;;4.00;4.00;;;;;24.97;50.84;101135.41;5027014;28;8812;-67
2023/07/11 11:12:23;;;;;;;;;4.00;4.00;;;;;24.92;50.63;101135.44;5005026;28;8962;-67
2023/07/11 11:15:13;;;;;;;;;3.00;3.00;;;;;24.94;51.04;101133.19;5024556;28;8821;-67
2023/07/11 11:18:16;;;;;;;;;4.50;3.25;;;;;25.03;51.43;101125.97;5017104;28;8991;-67
2023/07/11 11:20:42;;;;;;;;;3.00;3.00;;;;;25.08;50.78;101123.22;4998446;28;8832;-65
2023/07/11 11:23:41;;;;;;;;;5.50;4.50;;;;;25.08;51.19;101128.72;5012182;28;8834;-67
2023/07/11 11:26:26;;;;;;;;;3.00;3.00;;;;;25.12;50.92;101118.00;5020878;28;8836;-67
2023/07/11 11:29:06;;;;;;;;;4.50;3.00;;;;;25.18;50.75;101116.84;5016912;28;8823;-65
2023/07/11 11:31:43;;;;;;;;;6.00;6.00;;;;;25.14;50.81;101116.59;5030514;28;9797;-67
2023/07/11 11:34:31;;;;;;;;;3.25;3.25;;;;;25.17;50.45;101120.72;5037748;28;8839;-67
2023/07/11 11:37:21;;;;;;;;;5.00;5.00;;;;;25.19;50.59;101120.41;5014242;28;8832;-67
2023/07/11 11:39:56;;;;;;;;;4.00;4.00;;;;;25.18;50.28;101118.78;5018981;28;8939;-68
2023/07/11 11:42:26;;;;;;;;;3.25;3.25;;;;;25.17;50.43;101109.69;5019477;28;8866;-67
2023/07/11 11:45:00;;;;;;;;;3.25;3.25;;;;;25.17;50.97;101114.38;5024108;28;8840;-67
2023/07/11 11:47:47;;;;;;;;;2.25;2.25;;;;;25.15;50.73;101117.41;5017017;28;8870;-67
2023/07/11 11:50:20;;;;;;;;;6.50;4.25;;;;;25.17;50.63;101109.69;5020870;28;8824;-67